createdAt,value
2018-11-23T00:00:24.685Z,73.40
2018-11-23T00:02:50.333Z,83.63
2018-11-23T00:05:15.437Z,82.37
2018-11-23T00:07:40.982Z,84.77
2018-11-23T00:10:07.307Z,75.13
2018-11-23T00:12:32.408Z,78.10
2018-11-23T00:14:57.528Z,71.47
2018-11-23T00:17:22.658Z,69.23
2018-11-23T00:19:47.711Z,77.67
2018-11-23T00:22:12.791Z,81.03
2018-11-23T00:24:37.875Z,74.43
2018-11-23T00:27:02.992Z,80.33
2018-11-23T00:29:28.095Z,82.47
2018-11-23T00:31:53.150Z,77.67
2018-11-23T00:34:18.291Z,77.53
2018-11-23T00:36:43.381Z,76.50
2018-11-23T00:39:08.532Z,78.67
2018-11-23T00:41:33.599Z,78.70
2018-11-23T00:43:58.674Z,83.13
2018-11-23T00:46:42.751Z,82.10
2018-11-23T00:49:07.805Z,79.37
2018-11-23T00:51:32.908Z,81.53
2018-11-23T00:53:58.010Z,83.53
2018-11-23T00:56:23.069Z,76.53
2018-11-23T00:58:48.175Z,82.33
2018-11-23T01:01:13.227Z,77.87
2018-11-23T01:03:38.305Z,84.27
2018-11-23T01:06:03.407Z,77.83
2018-11-23T01:08:28.480Z,79.30
2018-11-23T01:10:53.530Z,79.53
2018-11-23T01:13:18.627Z,84.07
2018-11-23T01:15:43.714Z,78.83
2018-11-23T01:18:08.833Z,82.83
2018-11-23T01:20:33.913Z,92.97
2018-11-23T01:22:59.341Z,78.80
2018-11-23T01:25:25.265Z,87.20
2018-11-23T01:27:51.423Z,77.30
2018-11-23T01:30:39.127Z,82.13
2018-11-23T01:33:04.225Z,78.33
2018-11-23T01:35:29.283Z,74.10
2018-11-23T01:37:54.378Z,84.53
2018-11-23T01:40:20.722Z,74.77
2018-11-23T01:42:46.271Z,69.13
2018-11-23T01:45:12.098Z,76.70
2018-11-23T01:47:37.156Z,72.30
2018-11-23T01:50:02.247Z,74.77
2018-11-23T01:52:27.344Z,71.27
2018-11-23T01:54:52.460Z,67.60
2018-11-23T01:57:17.523Z,71.70
2018-11-23T01:59:42.643Z,68.27
2018-11-23T02:02:07.982Z,65.93
2018-11-23T02:04:33.140Z,65.73
2018-11-23T02:06:58.246Z,66.03
2018-11-23T02:09:23.319Z,65.70
2018-11-23T02:11:49.971Z,65.33
2018-11-23T02:14:15.065Z,63.53
2018-11-23T02:16:40.192Z,66.90
2018-11-23T02:19:05.207Z,67.90
2018-11-23T02:21:30.288Z,61.83
2018-11-23T02:23:55.379Z,64.00
2018-11-23T02:26:20.434Z,54.83
2018-11-23T02:28:45.551Z,58.93
2018-11-23T02:31:10.965Z,60.07
2018-11-23T02:36:12.731Z,62.10
2018-11-23T02:38:37.906Z,57.97
2018-11-23T02:41:03.066Z,59.27
2018-11-23T02:43:28.158Z,57.00
2018-11-23T02:45:53.250Z,63.90
2018-11-23T02:48:18.379Z,63.97
2018-11-23T02:50:43.478Z,56.07
2018-11-23T02:53:08.690Z,66.77
2018-11-23T02:55:33.775Z,60.33
2018-11-23T02:57:58.861Z,61.03
2018-11-23T03:00:24.300Z,59.00
2018-11-23T03:02:49.388Z,56.63
2018-11-23T03:05:16.359Z,59.63
2018-11-23T03:07:41.865Z,55.60
2018-11-23T03:10:07.795Z,51.57
2018-11-23T03:12:32.903Z,52.03
2018-11-23T03:14:58.001Z,55.03
2018-11-23T03:17:23.133Z,52.43
2018-11-23T03:20:07.208Z,50.07
2018-11-23T03:22:32.277Z,53.67
2018-11-23T03:27:33.994Z,52.00
2018-11-23T03:29:59.133Z,56.77
2018-11-23T03:32:24.226Z,55.47
2018-11-23T03:34:49.326Z,54.47
2018-11-23T03:37:14.439Z,56.13
2018-11-23T03:39:39.536Z,54.03
2018-11-23T03:42:04.626Z,52.83
2018-11-23T03:44:29.681Z,55.70
2018-11-23T03:46:54.905Z,57.67
2018-11-23T03:49:19.972Z,58.13
2018-11-23T03:51:45.083Z,58.07
2018-11-23T03:54:10.183Z,54.67
2018-11-23T03:56:35.272Z,55.93
2018-11-23T03:59:00.401Z,54.73
2018-11-23T04:01:25.454Z,55.67
2018-11-23T04:03:50.493Z,53.67
2018-11-23T04:06:15.579Z,56.03
2018-11-23T04:08:40.640Z,56.60
2018-11-23T04:11:06.115Z,60.83
2018-11-23T04:13:31.208Z,57.13
2018-11-23T04:15:56.252Z,50.97
2018-11-23T04:18:21.301Z,53.30
2018-11-23T04:21:05.122Z,58.40
2018-11-23T04:23:49.213Z,60.33
2018-11-23T04:26:33.274Z,46.60
2018-11-23T04:28:58.391Z,51.73
2018-11-23T04:31:42.467Z,54.57
2018-11-23T04:34:27.118Z,58.30
2018-11-23T04:36:52.160Z,51.97
2018-11-23T04:39:17.238Z,51.07
2018-11-23T04:41:46.308Z,53.20
2018-11-23T04:44:07.585Z,50.00
2018-11-23T04:46:32.697Z,50.53
2018-11-23T04:48:57.814Z,51.07
2018-11-23T04:51:22.938Z,49.47
2018-11-23T04:53:48.026Z,46.77
2018-11-23T04:56:13.072Z,46.03
2018-11-23T04:58:38.163Z,51.97
2018-11-23T05:01:03.402Z,45.83
2018-11-23T05:03:28.461Z,48.83
2018-11-23T05:05:53.559Z,50.53
2018-11-23T05:08:18.654Z,48.13
2018-11-23T05:10:43.714Z,48.03
2018-11-23T05:13:08.790Z,48.20
2018-11-23T05:15:33.871Z,47.00
2018-11-23T05:17:58.946Z,50.30
2018-11-23T05:20:24.008Z,50.93
2018-11-23T05:22:49.089Z,53.73
2018-11-23T05:25:15.481Z,48.73
2018-11-23T05:27:40.581Z,49.80
2018-11-23T05:30:24.677Z,52.57
2018-11-23T05:32:49.756Z,50.70
2018-11-23T05:35:15.868Z,52.90
2018-11-23T05:40:19.078Z,51.27
2018-11-23T05:43:04.453Z,49.77
2018-11-23T05:45:47.171Z,50.97
2018-11-23T05:48:12.305Z,55.07
2018-11-23T05:50:37.404Z,53.33
2018-11-23T05:53:02.487Z,54.10
2018-11-23T05:55:27.561Z,50.97
2018-11-23T05:57:52.831Z,55.70
2018-11-23T06:00:37.654Z,53.13
2018-11-23T06:03:02.760Z,51.63
2018-11-23T06:05:27.846Z,53.73
2018-11-23T06:07:52.983Z,51.30
2018-11-23T06:10:19.260Z,54.77
2018-11-23T06:12:44.380Z,53.80
2018-11-23T06:15:18.794Z,54.37
2018-11-23T06:17:44.344Z,53.20
2018-11-23T06:20:11.998Z,49.20
2018-11-23T06:22:37.247Z,56.33
2018-11-23T06:25:02.360Z,53.57
2018-11-23T06:27:27.551Z,56.30
2018-11-23T06:29:52.601Z,52.43
2018-11-23T06:32:55.688Z,54.43
2018-11-23T06:35:20.763Z,55.57
2018-11-23T06:37:46.511Z,54.73
2018-11-23T06:40:11.868Z,57.83
2018-11-23T06:42:55.921Z,52.37
2018-11-23T06:45:21.258Z,53.60
2018-11-23T06:47:46.323Z,54.50
2018-11-23T06:52:50.889Z,56.43
2018-11-23T06:55:16.035Z,60.37
2018-11-23T06:57:41.538Z,57.07
2018-11-23T07:00:26.413Z,63.33
2018-11-23T07:02:51.512Z,55.43
2018-11-23T07:05:16.573Z,57.80
2018-11-23T07:08:00.629Z,61.87
2018-11-23T07:10:25.707Z,57.83
2018-11-23T07:12:50.804Z,61.50
2018-11-23T07:15:15.879Z,62.83
2018-11-23T07:17:41.564Z,56.10
2018-11-23T07:20:08.229Z,60.27
2018-11-23T07:22:33.277Z,67.47
2018-11-23T07:24:58.380Z,59.83
2018-11-23T07:27:42.932Z,57.13
2018-11-23T07:30:31.368Z,56.03
2018-11-23T07:32:56.566Z,59.03
2018-11-23T07:35:21.656Z,55.93
2018-11-23T07:37:46.711Z,59.20
2018-11-23T07:40:50.697Z,60.23
2018-11-23T07:43:15.761Z,58.17
2018-11-23T07:45:40.809Z,62.17
2018-11-23T07:48:06.352Z,58.83
2018-11-23T07:50:31.435Z,55.63
2018-11-23T07:52:56.518Z,58.43
2018-11-23T07:55:21.556Z,66.97
2018-11-23T07:57:46.596Z,59.57
2018-11-23T08:00:16.366Z,61.43
2018-11-23T08:02:41.875Z,60.83
2018-11-23T08:05:08.540Z,63.17
2018-11-23T08:07:33.606Z,61.83
2018-11-23T08:09:57.487Z,59.40
2018-11-23T08:12:22.614Z,63.53
2018-11-23T08:14:47.664Z,57.63
2018-11-23T08:17:12.730Z,67.80
2018-11-23T08:19:56.767Z,62.97
2018-11-23T08:22:21.859Z,64.23
2018-11-23T08:24:46.926Z,62.37
2018-11-23T08:27:11.993Z,66.00
2018-11-23T08:29:37.049Z,61.23
2018-11-23T08:32:02.079Z,58.93
2018-11-23T08:34:27.193Z,62.60
2018-11-23T08:37:04.844Z,58.30
2018-11-23T08:42:06.734Z,61.33
2018-11-23T08:44:31.846Z,62.67
2018-11-23T08:46:56.937Z,62.47
2018-11-23T08:49:22.049Z,63.37
2018-11-23T08:51:47.110Z,60.20
2018-11-23T08:54:12.202Z,66.43
2018-11-23T08:56:37.264Z,58.77
2018-11-23T08:59:02.387Z,65.73
2018-11-23T09:01:27.511Z,60.93
2018-11-23T09:06:36.786Z,61.83
2018-11-23T09:09:01.979Z,61.03
2018-11-23T09:11:27.248Z,65.93
2018-11-23T09:13:52.517Z,62.10
2018-11-23T09:16:17.614Z,64.63
2018-11-23T09:18:42.740Z,66.17
2018-11-23T09:21:08.473Z,67.53
2018-11-23T09:23:33.636Z,62.53
2018-11-23T09:25:58.695Z,55.63
2018-11-23T09:28:23.762Z,65.43
2018-11-23T09:30:48.864Z,59.57
2018-11-23T09:33:13.929Z,65.53
2018-11-23T09:35:39.073Z,59.10
2018-11-23T09:38:04.153Z,59.10
2018-11-23T09:40:30.367Z,60.43
2018-11-23T09:42:55.822Z,69.87
2018-11-23T09:45:39.568Z,65.40
2018-11-23T09:48:05.748Z,65.20
2018-11-23T09:50:30.786Z,63.67
2018-11-23T09:52:56.979Z,63.43
2018-11-23T09:55:22.716Z,62.27
2018-11-23T09:57:47.776Z,64.10
2018-11-23T10:00:33.375Z,62.20
2018-11-23T10:02:59.222Z,66.50
2018-11-23T10:05:25.000Z,59.87
2018-11-23T10:07:51.473Z,68.03
2018-11-23T10:10:17.359Z,62.27
2018-11-23T10:12:42.938Z,64.40
2018-11-23T10:15:08.788Z,65.63
2018-11-23T10:17:33.890Z,64.00
2018-11-23T10:19:58.990Z,65.00
2018-11-23T10:22:24.100Z,65.90
2018-11-23T10:24:49.348Z,70.47
2018-11-23T10:27:14.436Z,63.23
2018-11-23T10:29:39.504Z,68.50
2018-11-23T10:32:04.620Z,61.33
2018-11-23T10:34:29.639Z,64.10
2018-11-23T10:36:54.815Z,65.57
2018-11-23T10:39:19.847Z,72.00
2018-11-23T10:44:21.576Z,69.97
2018-11-23T10:46:46.665Z,63.47
2018-11-23T10:49:13.833Z,67.97
2018-11-23T10:51:38.937Z,65.60
2018-11-23T10:54:04.016Z,63.87
2018-11-23T10:59:06.321Z,69.17
2018-11-23T11:01:50.181Z,65.53
2018-11-23T11:04:33.964Z,68.63
2018-11-23T11:07:06.256Z,62.60
2018-11-23T11:09:31.348Z,64.87
2018-11-23T11:11:56.425Z,71.53
2018-11-23T11:14:21.559Z,69.10
2018-11-23T11:16:46.638Z,66.97
2018-11-23T11:19:11.715Z,67.97
2018-11-23T11:21:36.817Z,69.60
2018-11-23T11:24:01.908Z,63.50
2018-11-23T11:26:26.998Z,71.77
2018-11-23T11:28:52.112Z,66.27
2018-11-23T11:31:17.255Z,63.97
2018-11-23T11:33:53.813Z,66.40
2018-11-23T11:36:18.934Z,64.40
2018-11-23T11:38:44.020Z,71.80
2018-11-23T11:41:09.115Z,70.70
2018-11-23T11:43:34.216Z,64.00
2018-11-23T11:45:59.300Z,66.67
2018-11-23T11:48:24.418Z,70.10
2018-11-23T11:50:49.617Z,69.77
2018-11-23T11:53:14.711Z,63.67
2018-11-23T11:55:39.830Z,64.10
2018-11-23T11:58:04.941Z,69.60
2018-11-23T12:00:30.057Z,70.83
2018-11-23T12:02:55.639Z,65.60
2018-11-23T12:05:20.701Z,71.17
2018-11-23T12:07:45.802Z,66.60
2018-11-23T12:10:30.807Z,65.80
2018-11-23T12:12:55.900Z,66.60
2018-11-23T12:15:20.990Z,69.33
2018-11-23T12:17:46.073Z,70.57
2018-11-23T12:20:30.210Z,69.20
2018-11-23T12:22:55.307Z,67.43
2018-11-23T12:25:20.818Z,73.00
2018-11-23T12:27:45.951Z,70.20
2018-11-23T12:30:30.082Z,72.57
2018-11-23T12:32:55.753Z,76.40
2018-11-23T12:35:21.791Z,69.37
2018-11-23T12:37:46.935Z,69.33
2018-11-23T12:40:13.430Z,74.30
2018-11-23T12:42:38.581Z,78.80
2018-11-23T12:45:03.726Z,77.07
2018-11-23T12:47:28.795Z,69.17
2018-11-23T12:49:53.896Z,70.23
2018-11-23T12:52:18.994Z,74.47
2018-11-23T12:54:44.104Z,78.53
2018-11-23T12:57:09.246Z,83.37
2018-11-23T12:59:34.305Z,69.83
2018-11-23T13:01:59.425Z,74.37
2018-11-23T13:04:24.601Z,72.77
2018-11-23T13:06:49.685Z,72.57
2018-11-23T13:09:14.780Z,73.23
2018-11-23T13:11:41.937Z,73.17
2018-11-23T13:14:07.892Z,76.13
2018-11-23T13:16:33.025Z,69.17
2018-11-23T13:18:58.114Z,70.03
2018-11-23T13:21:23.204Z,69.57
2018-11-23T13:23:48.352Z,74.07
2018-11-23T13:26:13.461Z,80.70
2018-11-23T13:28:38.605Z,75.70
2018-11-23T13:31:03.683Z,80.53
2018-11-23T13:33:28.838Z,78.37
2018-11-23T13:35:54.177Z,77.50
2018-11-23T13:38:19.266Z,76.33
2018-11-23T13:40:44.422Z,75.57
2018-11-23T13:43:09.524Z,85.00
2018-11-23T13:45:35.099Z,84.07
2018-11-23T13:48:00.182Z,75.83
2018-11-23T13:50:25.927Z,77.27
2018-11-23T13:52:52.181Z,86.27
2018-11-23T13:55:17.328Z,75.63
2018-11-23T13:57:42.432Z,75.67
2018-11-23T14:00:31.154Z,73.50
2018-11-23T14:02:56.266Z,82.00
2018-11-23T14:05:40.050Z,83.47
2018-11-23T14:08:05.152Z,79.43
2018-11-23T14:13:11.342Z,81.67
2018-11-23T14:15:32.568Z,75.90
2018-11-23T14:17:58.808Z,81.57
2018-11-23T14:20:24.773Z,81.40
2018-11-23T14:22:49.867Z,79.43
2018-11-23T14:25:33.674Z,80.43
2018-11-23T14:27:59.214Z,77.47
2018-11-23T14:30:34.455Z,78.00
2018-11-23T14:33:00.064Z,78.60
2018-11-23T14:35:26.914Z,75.47
2018-11-23T14:37:52.779Z,81.50
2018-11-23T14:40:18.192Z,69.53
2018-11-23T14:42:44.244Z,72.20
2018-11-23T14:45:12.171Z,79.20
2018-11-23T14:47:37.243Z,71.40
2018-11-23T14:50:02.368Z,80.33
2018-11-23T14:52:27.568Z,74.37
2018-11-23T14:54:52.769Z,72.73
2018-11-23T14:57:17.842Z,67.77
2018-11-23T14:59:42.900Z,70.57
2018-11-23T15:02:08.047Z,71.17
2018-11-23T15:04:33.239Z,75.03
2018-11-23T15:06:58.381Z,71.07
2018-11-23T15:09:23.506Z,73.00
2018-11-23T15:11:48.609Z,73.43
2018-11-23T15:14:13.758Z,72.87
2018-11-23T15:16:38.852Z,73.60
2018-11-23T15:19:04.203Z,70.67
2018-11-23T15:21:29.207Z,71.17
2018-11-23T15:23:54.356Z,71.17
2018-11-23T15:26:19.506Z,72.20
2018-11-23T15:28:44.611Z,67.90
2018-11-23T15:31:09.762Z,69.27
2018-11-23T15:33:34.864Z,70.33
2018-11-23T15:35:59.983Z,67.87
2018-11-23T15:38:26.002Z,70.20
2018-11-23T15:40:51.143Z,71.93
2018-11-23T15:43:17.326Z,67.80
2018-11-23T15:45:42.456Z,68.30
2018-11-23T15:48:08.632Z,66.03
2018-11-23T15:50:35.367Z,67.20
2018-11-23T15:53:00.452Z,67.37
2018-11-23T15:55:27.641Z,68.07
2018-11-23T15:57:53.852Z,63.03
2018-11-23T16:00:30.790Z,66.27
2018-11-23T16:02:56.041Z,69.80
2018-11-23T16:05:21.308Z,63.53
2018-11-23T16:07:46.501Z,71.97
2018-11-23T16:10:32.135Z,74.33
2018-11-23T16:15:34.612Z,71.63
2018-11-23T16:18:11.990Z,70.50
2018-11-23T16:20:39.481Z,66.67
2018-11-23T16:23:08.614Z,73.80
2018-11-23T16:25:33.781Z,74.17
2018-11-23T16:28:00.324Z,76.40
2018-11-23T16:30:26.723Z,70.27
2018-11-23T16:32:52.964Z,69.27
2018-11-23T16:35:19.625Z,74.67
2018-11-23T16:37:44.801Z,70.37
2018-11-23T16:40:12.668Z,74.37
2018-11-23T16:42:37.993Z,78.23
2018-11-23T16:45:03.219Z,77.03
2018-11-23T16:47:28.364Z,74.87
2018-11-23T16:49:53.504Z,72.93
2018-11-23T16:52:18.674Z,68.70
2018-11-23T16:54:43.746Z,72.10
2018-11-23T16:57:08.906Z,80.83
2018-11-23T16:59:34.064Z,73.23
2018-11-23T17:01:59.141Z,74.00
2018-11-23T17:04:24.277Z,73.57
2018-11-23T17:06:49.349Z,75.90
2018-11-23T17:09:14.502Z,77.53
2018-11-23T17:11:39.632Z,72.83
2018-11-23T17:14:04.729Z,80.43
2018-11-23T17:16:29.869Z,80.47
2018-11-23T17:18:55.022Z,71.37
2018-11-23T17:21:20.174Z,83.03
2018-11-23T17:23:45.348Z,79.67
2018-11-23T17:26:10.508Z,85.23
2018-11-23T17:28:35.589Z,77.23
2018-11-23T17:31:00.698Z,76.53
2018-11-23T17:33:27.618Z,79.90
2018-11-23T17:35:52.723Z,80.87
2018-11-23T17:38:17.882Z,81.97
2018-11-23T17:40:43.283Z,74.33
2018-11-23T17:43:08.621Z,74.10
2018-11-23T17:45:34.329Z,77.80
2018-11-23T17:50:36.750Z,78.10
2018-11-23T17:53:01.966Z,74.77
2018-11-23T18:00:59.633Z,75.70
2018-11-23T18:03:24.741Z,78.80
2018-11-23T18:05:49.840Z,79.80
2018-11-23T18:08:14.973Z,77.17
2018-11-23T18:10:40.094Z,81.60
2018-11-23T18:13:05.229Z,82.20
2018-11-23T18:15:31.744Z,78.03
2018-11-23T18:18:08.552Z,76.53
2018-11-23T18:20:52.579Z,73.73
2018-11-23T18:23:17.708Z,75.63
2018-11-23T18:25:42.847Z,74.53
2018-11-23T18:28:07.947Z,78.00
2018-11-23T18:30:33.974Z,65.80
2018-11-23T18:32:59.054Z,71.20
2018-11-23T18:35:24.123Z,76.73
2018-11-23T18:37:49.224Z,68.80
2018-11-23T18:40:14.771Z,73.00
2018-11-23T18:42:39.989Z,72.47
2018-11-23T18:45:06.049Z,71.63
2018-11-23T18:47:32.151Z,77.33
2018-11-23T18:49:57.316Z,76.23
2018-11-23T18:52:22.404Z,71.57
2018-11-23T18:54:47.597Z,72.53
2018-11-23T18:57:12.688Z,71.53
2018-11-23T18:59:37.754Z,80.77
2018-11-23T19:02:14.902Z,70.40
2018-11-23T19:04:40.020Z,77.63
2018-11-23T19:07:08.125Z,75.03
2018-11-23T19:09:30.568Z,75.77
2018-11-23T19:11:55.668Z,80.07
2018-11-23T19:14:20.769Z,78.73
2018-11-23T19:16:45.907Z,73.73
2018-11-23T19:19:11.093Z,76.27
2018-11-23T19:21:36.192Z,76.23
2018-11-23T19:24:01.351Z,73.50
2018-11-23T19:26:26.462Z,71.07
2018-11-23T19:28:51.628Z,81.30
2018-11-23T19:31:16.717Z,81.43
2018-11-23T19:33:41.820Z,81.33
2018-11-23T19:36:07.029Z,82.37
2018-11-23T19:38:32.124Z,79.17
2018-11-23T19:40:57.243Z,79.03
2018-11-23T19:43:22.347Z,70.10
2018-11-23T19:45:47.472Z,80.37
2018-11-23T19:48:12.578Z,76.20
2018-11-23T19:50:37.715Z,77.93
2018-11-23T19:53:02.917Z,83.13
2018-11-23T19:55:28.079Z,77.90
2018-11-23T19:57:53.177Z,79.10
2018-11-23T20:00:22.208Z,80.83
2018-11-23T20:03:06.263Z,79.00
2018-11-23T20:05:31.495Z,77.53
2018-11-23T20:07:57.456Z,79.17
2018-11-23T20:10:23.329Z,83.27
2018-11-23T20:12:49.559Z,78.50
2018-11-23T20:15:16.081Z,77.57
2018-11-23T20:17:41.697Z,76.20
2018-11-23T20:20:08.399Z,76.60
2018-11-23T20:22:33.562Z,77.80
2018-11-23T20:24:58.734Z,74.40
2018-11-23T20:27:23.880Z,78.03
2018-11-23T20:29:49.064Z,76.90
2018-11-23T20:32:14.159Z,73.37
2018-11-23T20:34:39.321Z,73.87
2018-11-23T20:37:04.537Z,80.53
2018-11-23T20:39:29.679Z,81.60
2018-11-23T20:41:54.829Z,78.57
2018-11-23T20:44:20.015Z,76.23
2018-11-23T20:46:45.157Z,68.60
2018-11-23T20:49:10.358Z,82.30
2018-11-23T20:51:35.472Z,75.97
2018-11-23T20:54:00.644Z,74.27
2018-11-23T20:56:25.819Z,75.53
2018-11-23T20:58:50.919Z,75.63
2018-11-23T21:01:16.077Z,82.37
2018-11-23T21:03:41.226Z,83.87
2018-11-23T21:06:06.515Z,73.53
2018-11-23T21:08:31.721Z,76.00
2018-11-23T21:10:56.831Z,72.87
2018-11-23T21:13:21.988Z,73.80
2018-11-23T21:15:47.056Z,77.63
2018-11-23T21:18:23.699Z,75.53
2018-11-23T21:20:48.828Z,81.13
2018-11-23T21:23:14.012Z,73.20
2018-11-23T21:25:39.195Z,81.40
2018-11-23T21:28:04.263Z,79.73
2018-11-23T21:30:29.352Z,78.20
2018-11-23T21:32:55.655Z,79.30
2018-11-23T21:35:20.871Z,74.90
2018-11-23T21:40:24.743Z,77.63
2018-11-23T21:42:49.851Z,72.23
2018-11-23T21:45:18.835Z,73.67
2018-11-23T21:47:43.957Z,73.10
2018-11-23T21:50:28.106Z,75.50
2018-11-23T21:52:53.182Z,78.40
2018-11-23T21:55:37.368Z,74.63
2018-11-23T21:58:02.752Z,75.13
2018-11-23T22:00:27.895Z,77.07
2018-11-23T22:02:52.962Z,77.43
2018-11-23T22:05:18.119Z,85.13
2018-11-23T22:07:43.318Z,72.33
2018-11-23T22:10:15.173Z,74.07
2018-11-23T22:12:40.278Z,74.33
2018-11-23T22:15:07.891Z,72.73
2018-11-23T22:20:13.067Z,73.50
2018-11-23T22:22:38.145Z,70.73
2018-11-23T22:25:03.230Z,73.00
2018-11-23T22:27:28.306Z,69.10
2018-11-23T22:29:53.422Z,76.07
2018-11-23T22:32:18.564Z,70.00
2018-11-23T22:34:43.691Z,73.10
2018-11-23T22:37:08.798Z,72.90
2018-11-23T22:39:33.893Z,72.13
2018-11-23T22:41:58.993Z,70.73
2018-11-23T22:44:24.103Z,75.67
2018-11-23T22:46:49.217Z,73.70
2018-11-23T22:49:14.301Z,77.97
2018-11-23T22:51:58.473Z,73.57
2018-11-23T22:54:23.541Z,72.07
2018-11-23T22:56:48.632Z,68.90
2018-11-23T22:59:13.748Z,68.27
2018-11-23T23:01:38.836Z,69.63
2018-11-23T23:04:03.997Z,67.30
2018-11-23T23:06:29.104Z,69.27
2018-11-23T23:08:54.463Z,69.20
2018-11-23T23:11:19.610Z,69.13
2018-11-23T23:14:22.382Z,71.03
2018-11-23T23:16:47.464Z,71.50
2018-11-23T23:19:12.577Z,74.07
2018-11-23T23:21:37.706Z,73.97
2018-11-23T23:24:02.790Z,65.40
2018-11-23T23:26:27.902Z,72.57
2018-11-23T23:28:53.074Z,69.07
2018-11-23T23:31:18.213Z,72.37
2018-11-23T23:33:43.371Z,72.07
2018-11-23T23:36:08.391Z,62.10
2018-11-23T23:38:33.472Z,65.10
2018-11-23T23:40:58.572Z,63.97
2018-11-23T23:43:23.702Z,61.37
2018-11-23T23:45:48.811Z,68.10
2018-11-23T23:48:13.905Z,68.13
2018-11-23T23:50:39.028Z,69.63
2018-11-23T23:53:04.139Z,73.40
2018-11-23T23:55:29.293Z,70.80
2018-11-23T23:57:54.411Z,65.93
